createdAt,value
2023-04-25T00:00:16.763Z,64.93
2023-04-25T00:02:43.668Z,64.29
2023-04-25T00:05:10.592Z,64.59
2023-04-25T00:07:37.311Z,65.20
2023-04-25T00:10:03.943Z,65.06
2023-04-25T00:12:30.543Z,65.26
2023-04-25T00:14:57.144Z,65.16
2023-04-25T00:17:23.775Z,64.99
2023-04-25T00:19:50.548Z,64.66
2023-04-25T00:22:17.151Z,64.48
2023-04-25T00:24:43.856Z,65.34
2023-04-25T00:27:10.520Z,65.57
2023-04-25T00:29:37.160Z,65.53
2023-04-25T00:32:03.769Z,65.48
2023-04-25T00:34:30.477Z,64.82
2023-04-25T00:36:57.109Z,64.43
2023-04-25T00:39:23.708Z,65.07
2023-04-25T00:41:50.373Z,64.91
2023-04-25T00:44:16.967Z,64.38
2023-04-25T00:46:43.641Z,63.87
2023-04-25T00:49:10.211Z,63.93
2023-04-25T00:51:36.873Z,64.10
2023-04-25T00:54:03.459Z,64.53
2023-04-25T00:56:30.092Z,64.46
2023-04-25T00:58:56.815Z,64.28
2023-04-25T01:01:23.459Z,64.26
2023-04-25T01:03:50.533Z,64.23
2023-04-25T01:06:17.366Z,64.24
2023-04-25T01:08:44.133Z,64.24
2023-04-25T01:11:10.811Z,64.08
2023-04-25T01:13:37.461Z,65.07
2023-04-25T01:16:04.127Z,65.30
2023-04-25T01:18:30.749Z,64.73
2023-04-25T01:20:57.346Z,64.45
2023-04-25T01:23:23.944Z,64.11
2023-04-25T01:25:50.558Z,64.17
2023-04-25T01:28:17.164Z,63.57
2023-04-25T01:30:43.819Z,63.79
2023-04-25T01:33:10.423Z,63.71
2023-04-25T01:35:37.011Z,63.55
2023-04-25T01:38:03.615Z,64.46
2023-04-25T01:40:30.400Z,64.35
2023-04-25T01:42:57.249Z,64.19
2023-04-25T01:45:24.892Z,64.17
2023-04-25T01:47:51.535Z,64.19
2023-04-25T01:50:18.284Z,64.23
2023-04-25T01:52:45.076Z,63.82
2023-04-25T01:55:11.930Z,63.97
2023-04-25T01:57:38.596Z,64.30
2023-04-25T02:00:05.182Z,63.99
2023-04-25T02:02:31.934Z,63.73
2023-04-25T02:04:58.570Z,64.09
2023-04-25T02:07:25.210Z,64.11
2023-04-25T02:09:52.247Z,64.05
2023-04-25T02:12:18.854Z,63.52
2023-04-25T02:14:45.516Z,63.10
2023-04-25T02:17:12.348Z,63.19
2023-04-25T02:19:39.099Z,63.54
2023-04-25T02:22:05.681Z,63.88
2023-04-25T02:24:32.284Z,63.92
2023-04-25T02:26:58.866Z,63.41
2023-04-25T02:29:25.477Z,63.40
2023-04-25T02:31:52.154Z,63.53
2023-04-25T02:34:18.860Z,63.62
2023-04-25T02:36:45.733Z,64.68
2023-04-25T02:39:12.459Z,64.68
2023-04-25T02:41:39.030Z,65.04
2023-04-25T02:44:05.637Z,64.83
2023-04-25T02:46:39.132Z,64.85
2023-04-25T02:49:06.842Z,64.44
2023-04-25T02:51:33.509Z,64.77
2023-04-25T02:54:00.193Z,64.38
2023-04-25T02:56:26.764Z,64.23
2023-04-25T02:58:53.347Z,64.53
2023-04-25T03:01:20.085Z,64.66
2023-04-25T03:03:46.847Z,64.33
2023-04-25T03:06:13.788Z,64.33
2023-04-25T03:08:40.413Z,64.37
2023-04-25T03:11:06.983Z,63.94
2023-04-25T03:13:33.589Z,64.11
2023-04-25T03:16:00.204Z,63.93
2023-04-25T03:18:26.820Z,63.99
2023-04-25T03:20:53.514Z,64.00
2023-04-25T03:23:20.165Z,64.05
2023-04-25T03:25:46.816Z,63.79
2023-04-25T03:28:13.432Z,63.74
2023-04-25T03:30:40.246Z,63.49
2023-04-25T03:33:07.077Z,63.72
2023-04-25T03:35:33.763Z,63.64
2023-04-25T03:38:00.478Z,63.50
2023-04-25T03:40:27.119Z,63.70
2023-04-25T03:42:53.732Z,63.69
2023-04-25T03:45:20.367Z,63.82
2023-04-25T03:47:47.297Z,64.79
2023-04-25T03:50:13.967Z,64.47
2023-04-25T03:52:40.669Z,64.62
2023-04-25T03:55:07.323Z,65.77
2023-04-25T03:57:33.970Z,67.39
2023-04-25T04:00:00.685Z,66.40
2023-04-25T04:02:27.399Z,66.24
2023-04-25T04:04:54.297Z,65.67
2023-04-25T04:07:21.344Z,65.17
2023-04-25T04:09:47.945Z,65.02
2023-04-25T04:12:14.612Z,64.23
2023-04-25T04:14:41.307Z,64.25
2023-04-25T04:17:07.966Z,64.29
2023-04-25T04:19:34.980Z,64.18
2023-04-25T04:22:01.598Z,64.46
2023-04-25T04:24:28.217Z,64.32
2023-04-25T04:26:54.866Z,64.66
2023-04-25T04:29:21.502Z,62.34
2023-04-25T04:31:48.275Z,60.80
2023-04-25T04:34:14.977Z,61.43
2023-04-25T04:36:41.615Z,62.18
2023-04-25T04:39:08.230Z,62.87
2023-04-25T04:41:35.032Z,63.00
2023-04-25T04:44:01.781Z,63.11
2023-04-25T04:46:28.466Z,63.42
2023-04-25T04:48:55.190Z,62.63
2023-04-25T04:51:21.907Z,62.80
2023-04-25T04:53:48.953Z,63.09
2023-04-25T04:56:15.792Z,62.49
2023-04-25T04:58:42.444Z,61.42
2023-04-25T05:01:09.106Z,62.47
2023-04-25T05:03:35.898Z,62.52
2023-04-25T05:06:02.655Z,62.14
2023-04-25T05:08:29.324Z,62.30
2023-04-25T05:10:55.935Z,62.53
2023-04-25T05:13:22.573Z,61.27
2023-04-25T05:15:49.153Z,59.97
2023-04-25T05:18:15.835Z,59.07
2023-04-25T05:20:43.119Z,59.18
2023-04-25T05:23:09.815Z,59.47
2023-04-25T05:25:36.401Z,59.14
2023-04-25T05:28:03.068Z,58.26
2023-04-25T05:30:29.799Z,57.30
2023-04-25T05:32:56.461Z,56.22
2023-04-25T05:35:23.597Z,56.66
2023-04-25T05:37:50.211Z,55.99
2023-04-25T05:40:17.028Z,55.07
2023-04-25T05:42:43.632Z,55.14
2023-04-25T05:45:10.226Z,55.16
2023-04-25T05:47:36.872Z,54.70
2023-04-25T05:50:03.511Z,53.99
2023-04-25T05:52:30.242Z,53.57
2023-04-25T05:54:56.906Z,52.98
2023-04-25T05:57:23.527Z,52.71
2023-04-25T05:59:50.136Z,52.58
2023-04-25T06:02:16.821Z,52.09
2023-04-25T06:04:43.656Z,51.94
2023-04-25T06:07:10.283Z,51.90
2023-04-25T06:09:36.878Z,53.16
2023-04-25T06:12:03.498Z,51.48
2023-04-25T06:14:30.156Z,50.65
2023-04-25T06:16:56.857Z,50.18
2023-04-25T06:19:23.448Z,49.73
2023-04-25T06:21:50.064Z,49.33
2023-04-25T06:24:16.667Z,49.09
2023-04-25T06:26:43.230Z,48.59
2023-04-25T06:29:09.854Z,48.38
2023-04-25T06:31:36.582Z,47.46
2023-04-25T06:34:03.259Z,46.83
2023-04-25T06:36:29.821Z,46.49
2023-04-25T06:38:56.400Z,46.17
2023-04-25T06:41:23.065Z,46.86
2023-04-25T06:43:49.664Z,45.93
2023-04-25T06:46:16.242Z,46.71
2023-04-25T06:48:42.917Z,46.62
2023-04-25T06:51:09.532Z,47.20
2023-04-25T06:53:36.233Z,49.59
2023-04-25T06:56:02.817Z,48.11
2023-04-25T06:58:29.848Z,48.58
2023-04-25T07:00:56.447Z,49.71
2023-04-25T07:03:23.250Z,48.85
2023-04-25T07:05:49.967Z,47.71
2023-04-25T07:08:16.615Z,47.19
2023-04-25T07:10:43.301Z,47.36
2023-04-25T07:13:09.907Z,47.62
2023-04-25T07:15:36.555Z,45.57
2023-04-25T07:18:03.151Z,45.48
2023-04-25T07:20:29.973Z,44.66
2023-04-25T07:22:56.711Z,45.51
2023-04-25T07:25:23.427Z,48.43
2023-04-25T07:27:50.023Z,46.87
2023-04-25T07:30:16.596Z,47.34
2023-04-25T07:32:43.184Z,43.98
2023-04-25T07:35:09.776Z,43.42
2023-04-25T07:37:36.396Z,41.70
2023-04-25T07:40:03.418Z,41.51
2023-04-25T07:42:29.980Z,41.46
2023-04-25T07:44:56.661Z,39.51
2023-04-25T07:47:23.382Z,39.47
2023-04-25T07:49:50.050Z,39.51
2023-04-25T07:52:16.640Z,39.11
2023-04-25T07:54:43.307Z,39.02
2023-04-25T07:57:10.021Z,39.13
2023-04-25T07:59:36.799Z,39.99
2023-04-25T08:02:03.492Z,38.53
2023-04-25T08:04:30.283Z,36.87
2023-04-25T08:06:56.996Z,36.65
2023-04-25T08:09:23.610Z,36.78
2023-04-25T08:11:50.830Z,35.85
2023-04-25T08:14:17.504Z,36.42
2023-04-25T08:16:44.139Z,34.51
2023-04-25T08:19:10.855Z,36.40
2023-04-25T08:21:37.512Z,35.24
2023-04-25T08:24:04.059Z,36.23
2023-04-25T08:26:30.710Z,33.95
2023-04-25T08:28:57.331Z,35.31
2023-04-25T08:31:24.107Z,34.45
2023-04-25T08:33:50.807Z,34.78
2023-04-25T08:36:27.901Z,35.98
2023-04-25T08:39:04.469Z,34.39
2023-04-25T08:41:31.470Z,34.78
2023-04-25T08:43:58.153Z,34.02
2023-04-25T08:46:25.057Z,33.97
2023-04-25T08:48:52.466Z,34.77
2023-04-25T08:51:22.359Z,35.22
2023-04-25T08:53:53.507Z,36.78
2023-04-25T08:56:20.571Z,36.88
2023-04-25T08:58:47.151Z,37.46
2023-04-25T09:01:13.781Z,37.83
2023-04-25T09:03:40.555Z,37.80
2023-04-25T09:06:07.210Z,38.19
2023-04-25T09:08:33.847Z,36.68
2023-04-25T09:11:00.468Z,36.82
2023-04-25T09:13:27.084Z,36.62
2023-04-25T09:15:53.785Z,37.29
2023-04-25T09:18:20.381Z,36.87
2023-04-25T09:23:16.534Z,36.90
2023-04-25T09:25:43.145Z,36.67
2023-04-25T09:28:09.814Z,36.28
2023-04-25T09:30:36.467Z,37.16
2023-04-25T09:33:03.321Z,36.27
2023-04-25T09:35:30.089Z,35.85
2023-04-25T09:37:56.760Z,35.44
2023-04-25T09:40:23.507Z,36.52
2023-04-25T09:42:50.080Z,36.55
2023-04-25T09:45:16.702Z,34.99
2023-04-25T09:47:43.334Z,35.69
2023-04-25T09:50:09.981Z,34.56
2023-04-25T09:52:36.713Z,37.34
2023-04-25T09:55:03.338Z,36.57
2023-04-25T09:57:29.964Z,35.38
2023-04-25T09:59:56.617Z,31.91
2023-04-25T10:02:23.330Z,32.57
2023-04-25T10:04:50.097Z,29.55
2023-04-25T10:07:16.809Z,30.85
2023-04-25T10:09:43.403Z,31.88
2023-04-25T10:12:09.996Z,33.84
2023-04-25T10:14:36.701Z,33.14
2023-04-25T10:17:03.347Z,31.12
2023-04-25T10:19:30.086Z,33.16
2023-04-25T10:21:56.653Z,31.58
2023-04-25T10:24:23.375Z,33.02
2023-04-25T10:26:50.312Z,31.72
2023-04-25T10:29:17.122Z,32.94
2023-04-25T10:31:43.791Z,33.72
2023-04-25T10:34:10.408Z,34.42
2023-04-25T10:36:36.986Z,32.63
2023-04-25T10:39:03.579Z,32.81
2023-04-25T10:41:30.221Z,31.83
2023-04-25T10:43:59.194Z,33.27
2023-04-25T10:46:25.919Z,32.43
2023-04-25T10:48:52.575Z,32.28
2023-04-25T10:51:19.168Z,32.72
2023-04-25T10:53:45.780Z,29.25
2023-04-25T10:56:13.205Z,32.42
2023-04-25T10:58:41.045Z,33.15
2023-04-25T11:01:07.757Z,30.93
2023-04-25T11:03:34.524Z,31.02
2023-04-25T11:06:01.535Z,31.17
2023-04-25T11:08:28.128Z,30.69
2023-04-25T11:10:54.749Z,31.23
2023-04-25T11:13:21.421Z,31.99
2023-04-25T11:15:50.350Z,31.09
2023-04-25T11:18:21.792Z,31.70
2023-04-25T11:20:48.622Z,32.10
2023-04-25T11:23:15.208Z,32.83
2023-04-25T11:25:41.815Z,30.94
2023-04-25T11:28:08.421Z,31.83
2023-04-25T11:30:35.023Z,30.59
2023-04-25T11:33:01.720Z,31.44
2023-04-25T11:35:28.384Z,29.87
2023-04-25T11:37:55.166Z,30.42
2023-04-25T11:40:21.899Z,31.69
2023-04-25T11:42:48.488Z,32.95
2023-04-25T11:45:15.061Z,33.36
2023-04-25T11:47:41.715Z,33.27
2023-04-25T11:50:08.362Z,34.30
2023-04-25T11:52:35.045Z,33.96
2023-04-25T11:55:01.718Z,32.98
2023-04-25T11:57:30.668Z,33.85
2023-04-25T11:59:57.345Z,33.83
2023-04-25T12:02:24.208Z,33.46
2023-04-25T12:04:51.651Z,33.17
2023-04-25T12:07:18.720Z,33.44
2023-04-25T12:09:45.385Z,33.37
2023-04-25T12:12:12.520Z,33.19
2023-04-25T12:14:39.079Z,31.93
2023-04-25T12:17:06.183Z,32.23
2023-04-25T12:19:33.129Z,30.90
2023-04-25T12:22:00.213Z,30.60
2023-04-25T12:24:27.199Z,31.44
2023-04-25T12:26:54.306Z,31.20
2023-04-25T12:29:21.438Z,31.65
2023-04-25T12:31:48.136Z,31.17
2023-04-25T12:34:14.914Z,30.93
2023-04-25T12:36:41.542Z,30.57
2023-04-25T12:39:08.142Z,30.32
2023-04-25T12:41:35.118Z,29.64
2023-04-25T12:44:01.791Z,30.53
2023-04-25T12:46:28.564Z,29.34
2023-04-25T12:48:55.960Z,30.47
2023-04-25T12:51:25.356Z,30.49
2023-04-25T12:53:51.948Z,29.78
2023-04-25T12:56:18.792Z,29.30
2023-04-25T12:58:46.161Z,29.07
2023-04-25T13:01:12.811Z,29.83
2023-04-25T13:03:39.586Z,30.44
2023-04-25T13:06:06.444Z,30.64
2023-04-25T13:08:33.084Z,28.59
2023-04-25T13:10:59.649Z,29.25
2023-04-25T13:13:26.228Z,29.21
2023-04-25T13:15:52.939Z,29.58
2023-04-25T13:18:19.521Z,29.85
2023-04-25T13:20:46.141Z,28.21
2023-04-25T13:23:12.863Z,29.63
2023-04-25T13:25:39.738Z,30.38
2023-04-25T13:28:06.344Z,30.06
2023-04-25T13:30:32.945Z,28.06
2023-04-25T13:32:59.555Z,28.62
2023-04-25T13:35:26.191Z,29.09
2023-04-25T13:37:52.985Z,28.33
2023-04-25T13:40:19.577Z,28.29
2023-04-25T13:42:46.179Z,28.44
2023-04-25T13:45:12.760Z,27.69
2023-04-25T13:47:39.374Z,27.40
2023-04-25T13:50:06.094Z,29.13
2023-04-25T13:52:32.755Z,28.40
2023-04-25T13:54:59.355Z,28.41
2023-04-25T13:57:25.964Z,30.80
2023-04-25T13:59:52.590Z,32.67
2023-04-25T14:02:19.214Z,32.91
2023-04-25T14:04:45.999Z,32.75
2023-04-25T14:07:12.874Z,32.31
2023-04-25T14:09:39.600Z,32.57
2023-04-25T14:12:06.179Z,31.58
2023-04-25T14:14:32.785Z,31.76
2023-04-25T14:16:59.383Z,31.19
2023-04-25T14:19:26.035Z,32.01
2023-04-25T14:21:52.623Z,33.26
2023-04-25T14:24:19.269Z,32.11
2023-04-25T14:26:45.848Z,32.30
2023-04-25T14:29:12.480Z,32.72
2023-04-25T14:31:39.302Z,32.76
2023-04-25T14:34:05.923Z,33.65
2023-04-25T14:36:32.522Z,31.72
2023-04-25T14:38:59.133Z,33.06
2023-04-25T14:41:25.737Z,33.03
2023-04-25T14:43:52.719Z,32.63
2023-04-25T14:46:19.538Z,32.17
2023-04-25T14:48:46.351Z,32.87
2023-04-25T14:51:12.941Z,32.12
2023-04-25T14:53:39.654Z,32.57
2023-04-25T14:56:06.282Z,32.76
2023-04-25T14:58:32.986Z,32.31
2023-04-25T15:00:59.760Z,32.21
2023-04-25T15:03:26.451Z,31.74
2023-04-25T15:05:53.129Z,31.48
2023-04-25T15:08:19.817Z,31.57
2023-04-25T15:10:46.431Z,31.23
2023-04-25T15:13:13.034Z,31.77
2023-04-25T15:15:39.617Z,31.26
2023-04-25T15:18:06.349Z,30.78
2023-04-25T15:20:32.949Z,29.26
2023-04-25T15:22:59.639Z,29.12
2023-04-25T15:25:26.367Z,29.22
2023-04-25T15:27:52.963Z,30.23
2023-04-25T15:30:19.683Z,30.50
2023-04-25T15:32:46.292Z,30.23
2023-04-25T15:35:12.985Z,30.42
2023-04-25T15:37:39.627Z,30.19
2023-04-25T15:40:06.231Z,30.43
2023-04-25T15:42:32.805Z,29.00
2023-04-25T15:44:59.374Z,30.20
2023-04-25T15:47:25.973Z,30.71
2023-04-25T15:49:52.584Z,31.69
2023-04-25T15:52:19.174Z,30.64
2023-04-25T15:54:45.765Z,29.87
2023-04-25T15:57:15.433Z,29.92
2023-04-25T15:59:42.255Z,30.22
2023-04-25T16:02:08.929Z,29.03
2023-04-25T16:04:35.603Z,28.50
2023-04-25T16:07:02.333Z,27.90
2023-04-25T16:09:29.315Z,28.65
2023-04-25T16:11:55.965Z,29.09
2023-04-25T16:14:22.577Z,28.11
2023-04-25T16:16:49.331Z,27.64
2023-04-25T16:19:15.945Z,29.04
2023-04-25T16:21:42.541Z,29.44
2023-04-25T16:24:09.193Z,29.03
2023-04-25T16:26:35.785Z,29.02
2023-04-25T16:29:02.401Z,28.55
2023-04-25T16:31:28.999Z,28.63
2023-04-25T16:33:55.702Z,29.01
2023-04-25T16:36:22.349Z,29.44
2023-04-25T16:38:49.498Z,29.33
2023-04-25T16:41:16.340Z,29.08
2023-04-25T16:43:42.936Z,28.80
2023-04-25T16:46:09.634Z,28.83
2023-04-25T16:48:36.448Z,28.37
2023-04-25T16:51:03.010Z,30.01
2023-04-25T16:53:29.600Z,28.26
2023-04-25T16:55:56.258Z,27.93
2023-04-25T16:58:22.875Z,29.39
2023-04-25T17:00:49.560Z,29.70
2023-04-25T17:03:16.424Z,30.04
2023-04-25T17:05:43.126Z,30.68
2023-04-25T17:08:10.274Z,30.92
2023-04-25T17:10:37.266Z,31.04
2023-04-25T17:13:04.359Z,31.29
2023-04-25T17:15:33.069Z,31.71
2023-04-25T17:18:00.953Z,32.42
2023-04-25T17:20:27.540Z,33.42
2023-04-25T17:22:54.123Z,33.42
2023-04-25T17:25:20.883Z,33.41
2023-04-25T17:27:47.463Z,33.63
2023-04-25T17:30:14.088Z,34.09
2023-04-25T17:32:40.697Z,34.04
2023-04-25T17:35:07.361Z,33.92
2023-04-25T17:37:33.988Z,33.95
2023-04-25T17:40:00.634Z,34.82
2023-04-25T17:42:27.218Z,34.62
2023-04-25T17:44:53.809Z,34.77
2023-04-25T17:47:20.367Z,35.49
2023-04-25T17:49:46.970Z,35.09
2023-04-25T17:52:13.608Z,35.58
2023-04-25T17:54:40.346Z,35.25
2023-04-25T17:57:06.944Z,35.98
2023-04-25T17:59:33.536Z,35.79
2023-04-25T18:02:00.219Z,35.81
2023-04-25T18:04:27.224Z,36.13
2023-04-25T18:06:53.855Z,35.94
2023-04-25T18:09:20.463Z,35.86
2023-04-25T18:11:47.102Z,36.14
2023-04-25T18:14:13.724Z,36.67
2023-04-25T18:16:40.364Z,36.87
2023-04-25T18:19:07.012Z,36.16
2023-04-25T18:21:33.613Z,36.66
2023-04-25T18:24:00.185Z,36.80
2023-04-25T18:26:26.821Z,37.08
2023-04-25T18:28:53.728Z,37.10
2023-04-25T18:31:20.705Z,37.17
2023-04-25T18:33:47.342Z,38.30
2023-04-25T18:36:13.989Z,38.03
2023-04-25T18:38:40.593Z,37.82
2023-04-25T18:41:27.471Z,38.60
2023-04-25T18:43:54.212Z,37.80
2023-04-25T18:46:21.270Z,37.71
2023-04-25T18:48:47.915Z,38.31
2023-04-25T18:51:14.494Z,38.12
2023-04-25T18:53:41.098Z,38.40
2023-04-25T18:56:07.700Z,38.40
2023-04-25T18:58:34.306Z,38.47
2023-04-25T19:01:00.974Z,39.22
2023-04-25T19:03:27.778Z,39.48
2023-04-25T19:05:54.449Z,38.67
2023-04-25T19:08:21.029Z,38.54
2023-04-25T19:10:47.840Z,38.09
2023-04-25T19:13:14.410Z,38.90
2023-04-25T19:15:41.089Z,39.28
2023-04-25T19:18:07.839Z,39.63
2023-04-25T19:20:34.455Z,38.67
2023-04-25T19:23:01.085Z,39.79
2023-04-25T19:25:27.704Z,39.73
2023-04-25T19:27:54.323Z,40.14
2023-04-25T19:30:21.076Z,40.67
2023-04-25T19:32:48.005Z,41.18
2023-04-25T19:35:14.658Z,42.32
2023-04-25T19:37:41.265Z,42.36
2023-04-25T19:40:07.845Z,41.28
2023-04-25T19:42:34.429Z,42.27
2023-04-25T19:45:01.076Z,41.78
2023-04-25T19:47:27.704Z,41.76
2023-04-25T19:49:54.327Z,43.09
2023-04-25T19:52:20.899Z,42.79
2023-04-25T19:54:47.493Z,43.47
2023-04-25T19:57:14.102Z,43.44
2023-04-25T19:59:40.713Z,43.73
2023-04-25T20:02:07.339Z,43.64
2023-04-25T20:04:34.101Z,43.38
2023-04-25T20:07:00.862Z,43.54
2023-04-25T20:09:27.452Z,43.88
2023-04-25T20:11:54.193Z,44.63
2023-04-25T20:14:20.869Z,44.45
2023-04-25T20:16:47.548Z,44.91
2023-04-25T20:19:14.257Z,45.16
2023-04-25T20:21:40.829Z,45.74
2023-04-25T20:24:07.418Z,46.00
2023-04-25T20:26:34.032Z,46.21
2023-04-25T20:29:00.639Z,46.65
2023-04-25T20:31:27.300Z,46.46
2023-04-25T20:33:53.893Z,46.28
2023-04-25T20:36:20.511Z,46.93
2023-04-25T20:38:47.111Z,46.60
2023-04-25T20:41:13.794Z,47.16
2023-04-25T20:43:40.414Z,47.19
2023-04-25T20:46:07.074Z,47.10
2023-04-25T20:48:33.957Z,48.01
2023-04-25T20:51:00.653Z,47.94
2023-04-25T20:53:27.286Z,48.96
2023-04-25T20:55:53.928Z,48.76
2023-04-25T20:58:20.700Z,48.84
2023-04-25T21:00:47.506Z,48.24
2023-04-25T21:03:14.496Z,48.49
2023-04-25T21:05:41.166Z,48.61
2023-04-25T21:08:07.785Z,48.70
2023-04-25T21:10:36.168Z,48.71
2023-04-25T21:13:04.078Z,48.76
2023-04-25T21:15:30.763Z,50.02
2023-04-25T21:17:57.465Z,49.96
2023-04-25T21:20:24.209Z,49.94
2023-04-25T21:22:53.811Z,50.23
2023-04-25T21:25:21.123Z,50.50
2023-04-25T21:27:47.694Z,50.71
2023-04-25T21:30:14.343Z,50.63
2023-04-25T21:32:41.010Z,50.22
2023-04-25T21:35:07.697Z,50.01
2023-04-25T21:37:34.629Z,50.20
2023-04-25T21:40:01.248Z,49.84
2023-04-25T21:42:27.905Z,49.97
2023-04-25T21:44:54.507Z,50.68
2023-04-25T21:47:21.195Z,50.20
2023-04-25T21:49:47.826Z,51.15
2023-04-25T21:52:14.446Z,50.87
2023-04-25T21:54:41.089Z,51.37
2023-04-25T21:57:08.102Z,50.64
2023-04-25T21:59:34.682Z,50.79
2023-04-25T22:02:01.344Z,50.45
2023-04-25T22:04:28.183Z,50.87
2023-04-25T22:06:55.125Z,51.23
2023-04-25T22:09:22.992Z,50.95
2023-04-25T22:11:49.605Z,52.25
2023-04-25T22:14:16.450Z,53.16
2023-04-25T22:16:43.135Z,53.81
2023-04-25T22:19:09.865Z,53.82
2023-04-25T22:21:36.535Z,53.13
2023-04-25T22:24:03.168Z,53.30
2023-04-25T22:26:29.784Z,53.86
2023-04-25T22:28:56.422Z,53.09
2023-04-25T22:31:23.052Z,52.48
2023-04-25T22:33:49.709Z,52.84
2023-04-25T22:36:16.524Z,53.02
2023-04-25T22:38:43.201Z,52.92
2023-04-25T22:41:09.863Z,53.04
2023-04-25T22:43:36.438Z,53.00
2023-04-25T22:46:03.156Z,53.80
2023-04-25T22:48:29.774Z,53.29
2023-04-25T22:50:56.450Z,53.88
2023-04-25T22:53:23.059Z,53.93
2023-04-25T22:55:49.675Z,53.93
2023-04-25T22:58:16.295Z,53.60
2023-04-25T23:00:42.993Z,53.47
2023-04-25T23:03:09.768Z,53.65
2023-04-25T23:05:36.474Z,54.12
2023-04-25T23:08:03.127Z,54.30
2023-04-25T23:10:29.828Z,54.86
2023-04-25T23:12:56.461Z,55.01
2023-04-25T23:15:23.073Z,55.47
2023-04-25T23:17:49.749Z,54.12
2023-04-25T23:20:16.360Z,54.68
2023-04-25T23:22:42.995Z,54.59
2023-04-25T23:25:09.661Z,54.12
2023-04-25T23:27:36.345Z,54.65
2023-04-25T23:30:04.055Z,54.78
2023-04-25T23:32:30.737Z,55.44
2023-04-25T23:34:57.364Z,54.74
2023-04-25T23:37:23.951Z,54.76
2023-04-25T23:39:50.566Z,54.07
2023-04-25T23:42:17.220Z,54.54
2023-04-25T23:44:43.856Z,53.96
2023-04-25T23:47:10.566Z,54.18
2023-04-25T23:49:37.217Z,54.63
2023-04-25T23:52:03.897Z,53.93
2023-04-25T23:54:30.486Z,54.35
2023-04-25T23:56:57.113Z,54.25
2023-04-25T23:59:23.716Z,54.01
